SAS3A LKPR-ESSA
Flight info
| Callsign | SAS3A |
|---|---|
| Flight time | N/A |
| Altitude | 36000 |
| Route | VENOX4B/30 VENOX DCT DEKOV Y621 GARKI DCT POGAB DCT RENKI/N0446F350 L132 BODLA DCT GORPI DCT ARMOD Z228 NILUG |
| Aircraft | B738/M-SDE2E3FGHIRWXY/LB1 |
Departure
| Time | N/A |
|---|---|
| Airport | Václav Havel Airport Prague (LKPR) |
Arrival
| Time | 2026-05-06 19:11 |
|---|---|
| Airport | Stockholm-Arlanda Airport (ESSA) |
| Time | Latitude | Longitude | Altitude | Speed | Heading |
|---|---|---|---|---|---|
| 2026-05-06 18:35 | 56.95546 | 16.96714 | 35805 ft | 414 kts | 21° |
| 2026-05-06 18:35 | 56.98233 | 16.98618 | 35802 ft | 414 kts | 21° |
| 2026-05-06 18:36 | 57.03615 | 17.02344 | 35801 ft | 412 kts | 20° |
| 2026-05-06 18:36 | 57.08982 | 17.06024 | 35803 ft | 411 kts | 20° |
| 2026-05-06 18:37 | 57.14345 | 17.09708 | 35803 ft | 410 kts | 20° |
| 2026-05-06 18:37 | 57.19687 | 17.13392 | 35792 ft | 410 kts | 20° |
| 2026-05-06 18:38 | 57.22384 | 17.15172 | 35653 ft | 413 kts | 16° |
| 2026-05-06 18:38 | 57.25177 | 17.16564 | 35432 ft | 419 kts | 13° |
| 2026-05-06 18:38 | 57.28046 | 17.17809 | 35108 ft | 427 kts | 12° |
| 2026-05-06 18:38 | 57.30970 | 17.19021 | 34802 ft | 434 kts | 12° |
| 2026-05-06 18:39 | 57.33939 | 17.20253 | 34491 ft | 441 kts | 12° |
| 2026-05-06 18:39 | 57.36910 | 17.21509 | 34182 ft | 447 kts | 13° |
| 2026-05-06 18:39 | 57.39958 | 17.22825 | 33867 ft | 453 kts | 13° |
| 2026-05-06 18:40 | 57.46161 | 17.25562 | 33232 ft | 463 kts | 13° |
| 2026-05-06 18:40 | 57.49308 | 17.26968 | 32913 ft | 468 kts | 13° |
| 2026-05-06 18:40 | 57.52488 | 17.28395 | 32593 ft | 472 kts | 13° |
| 2026-05-06 18:40 | 57.55690 | 17.29835 | 32272 ft | 475 kts | 13° |
| 2026-05-06 18:41 | 57.58894 | 17.31278 | 31940 ft | 472 kts | 13° |
| 2026-05-06 18:41 | 57.62069 | 17.32710 | 31608 ft | 467 kts | 13° |
| 2026-05-06 18:41 | 57.65215 | 17.34130 | 31279 ft | 463 kts | 13° |
| 2026-05-06 18:41 | 57.68321 | 17.35535 | 30859 ft | 456 kts | 13° |
| 2026-05-06 18:42 | 57.71390 | 17.36924 | 30375 ft | 452 kts | 13° |
| 2026-05-06 18:42 | 57.74412 | 17.38295 | 30140 ft | 441 kts | 13° |
| 2026-05-06 18:42 | 57.77377 | 17.39643 | 29847 ft | 439 kts | 13° |
| 2026-05-06 18:42 | 57.80364 | 17.41003 | 29619 ft | 445 kts | 13° |
| 2026-05-06 18:43 | 57.83360 | 17.42369 | 29378 ft | 449 kts | 13° |
| 2026-05-06 18:43 | 57.86376 | 17.43748 | 29133 ft | 445 kts | 14° |
| 2026-05-06 18:43 | 57.89328 | 17.45097 | 29006 ft | 429 kts | 10° |
| 2026-05-06 18:43 | 57.92179 | 17.46406 | 28994 ft | 414 kts | 13° |
| 2026-05-06 18:44 | 57.94935 | 17.47675 | 28986 ft | 405 kts | 13° |
| 2026-05-06 18:44 | 58.00458 | 17.50213 | 29014 ft | 412 kts | 13° |
| 2026-05-06 18:45 | 58.06069 | 17.52799 | 29012 ft | 418 kts | 13° |
| 2026-05-06 18:45 | 58.11737 | 17.55423 | 29000 ft | 417 kts | 13° |
| 2026-05-06 18:45 | 58.14514 | 17.56712 | 28984 ft | 404 kts | 13° |
| 2026-05-06 18:46 | 58.17195 | 17.57960 | 28979 ft | 390 kts | 13° |
| 2026-05-06 18:46 | 58.19785 | 17.59166 | 28906 ft | 378 kts | 13° |
| 2026-05-06 18:46 | 58.22347 | 17.60360 | 28380 ft | 380 kts | 13° |
| 2026-05-06 18:46 | 58.24921 | 17.61562 | 27904 ft | 383 kts | 13° |
| 2026-05-06 18:47 | 58.27549 | 17.62792 | 27435 ft | 397 kts | 13° |
| 2026-05-06 18:47 | 58.30268 | 17.64065 | 26952 ft | 407 kts | 14° |
| 2026-05-06 18:47 | 58.33032 | 17.65362 | 26457 ft | 410 kts | 13° |
| 2026-05-06 18:47 | 58.35795 | 17.66661 | 25956 ft | 408 kts | 14° |
| 2026-05-06 18:48 | 58.38550 | 17.67958 | 25457 ft | 407 kts | 13° |
| 2026-05-06 18:48 | 58.41295 | 17.69252 | 24956 ft | 405 kts | 14° |
| 2026-05-06 18:48 | 58.44020 | 17.70540 | 24479 ft | 402 kts | 14° |
| 2026-05-06 18:48 | 58.46695 | 17.71805 | 24385 ft | 389 kts | 14° |
| 2026-05-06 18:49 | 58.49292 | 17.73036 | 24134 ft | 382 kts | 14° |
| 2026-05-06 18:49 | 58.51871 | 17.74260 | 23619 ft | 382 kts | 14° |
| 2026-05-06 18:49 | 58.54455 | 17.75487 | 23129 ft | 381 kts | 14° |
| 2026-05-06 18:49 | 58.57014 | 17.76705 | 22774 ft | 377 kts | 14° |
| 2026-05-06 18:50 | 58.59546 | 17.77912 | 22375 ft | 374 kts | 14° |
| 2026-05-06 18:50 | 58.62046 | 17.79105 | 21848 ft | 375 kts | 14° |
| 2026-05-06 18:50 | 58.64611 | 17.80331 | 21321 ft | 375 kts | 14° |
| 2026-05-06 18:50 | 58.67121 | 17.81533 | 20714 ft | 378 kts | 14° |
| 2026-05-06 18:51 | 58.69671 | 17.82755 | 20330 ft | 374 kts | 14° |
| 2026-05-06 18:51 | 58.72149 | 17.83945 | 20268 ft | 361 kts | 14° |
| 2026-05-06 18:51 | 58.74554 | 17.85102 | 19996 ft | 355 kts | 14° |
| 2026-05-06 18:51 | 58.76955 | 17.86258 | 19587 ft | 355 kts | 14° |
| 2026-05-06 18:52 | 58.79348 | 17.87411 | 19190 ft | 353 kts | 14° |
| 2026-05-06 18:52 | 58.81725 | 17.88594 | 18712 ft | 353 kts | 17° |
| 2026-05-06 18:52 | 58.84012 | 17.90358 | 18165 ft | 356 kts | 25° |
| 2026-05-06 18:52 | 58.86244 | 17.92496 | 17621 ft | 358 kts | 27° |
| 2026-05-06 18:53 | 58.88452 | 17.94708 | 17289 ft | 353 kts | 27° |
| 2026-05-06 18:53 | 58.90596 | 17.96842 | 17071 ft | 345 kts | 27° |
| 2026-05-06 18:53 | 58.92746 | 17.98947 | 16550 ft | 347 kts | 26° |
| 2026-05-06 18:53 | 58.94910 | 18.01033 | 16121 ft | 346 kts | 26° |
| 2026-05-06 18:54 | 58.97035 | 18.03064 | 16026 ft | 334 kts | 26° |
| 2026-05-06 18:54 | 58.99093 | 18.05024 | 15999 ft | 326 kts | 26° |
| 2026-05-06 18:54 | 59.01126 | 18.06959 | 16007 ft | 327 kts | 26° |
| 2026-05-06 18:54 | 59.03187 | 18.08919 | 16013 ft | 332 kts | 26° |
| 2026-05-06 18:55 | 59.05271 | 18.10906 | 16007 ft | 334 kts | 26° |
| 2026-05-06 18:55 | 59.07356 | 18.12896 | 15886 ft | 335 kts | 26° |
| 2026-05-06 18:55 | 59.09460 | 18.14824 | 15618 ft | 334 kts | 20° |
| 2026-05-06 18:55 | 59.11723 | 18.15636 | 15368 ft | 331 kts | 3° |
| 2026-05-06 18:56 | 59.14012 | 18.15883 | 15124 ft | 329 kts | 2° |
| 2026-05-06 18:56 | 59.16297 | 18.16097 | 14873 ft | 327 kts | 2° |
| 2026-05-06 18:56 | 59.18563 | 18.16314 | 14621 ft | 325 kts | 2° |
| 2026-05-06 18:56 | 59.20821 | 18.16545 | 14245 ft | 327 kts | 2° |
| 2026-05-06 18:57 | 59.23106 | 18.16791 | 13769 ft | 330 kts | 3° |
| 2026-05-06 18:57 | 59.25396 | 18.17048 | 13299 ft | 330 kts | 3° |
| 2026-05-06 18:57 | 59.27667 | 18.17309 | 13039 ft | 324 kts | 3° |
| 2026-05-06 18:57 | 59.29881 | 18.17567 | 12911 ft | 314 kts | 3° |
| 2026-05-06 18:58 | 59.32078 | 18.17825 | 12387 ft | 318 kts | 3° |
| 2026-05-06 18:58 | 59.34300 | 18.18087 | 11873 ft | 322 kts | 3° |
| 2026-05-06 18:58 | 59.36545 | 18.18353 | 11372 ft | 324 kts | 3° |
| 2026-05-06 18:58 | 59.38762 | 18.18616 | 11220 ft | 314 kts | 3° |
| 2026-05-06 18:59 | 59.40958 | 18.18876 | 10669 ft | 318 kts | 3° |
| 2026-05-06 18:59 | 59.43167 | 18.19139 | 10094 ft | 318 kts | 3° |
| 2026-05-06 18:59 | 59.45367 | 18.19400 | 9574 ft | 316 kts | 3° |
| 2026-05-06 18:59 | 59.47550 | 18.19660 | 9073 ft | 313 kts | 3° |
| 2026-05-06 19:00 | 59.49716 | 18.19918 | 8573 ft | 310 kts | 3° |
| 2026-05-06 19:00 | 59.51856 | 18.20174 | 8068 ft | 306 kts | 3° |
| 2026-05-06 19:00 | 59.53969 | 18.20483 | 7563 ft | 302 kts | 7° |
| 2026-05-06 19:00 | 59.55337 | 18.20897 | 7231 ft | 299 kts | 9° |
| 2026-05-06 19:01 | 59.58040 | 18.21925 | 6608 ft | 291 kts | 11° |
| 2026-05-06 19:01 | 59.60014 | 18.22516 | 6202 ft | 284 kts | 4° |
| 2026-05-06 19:01 | 59.61960 | 18.22781 | 5802 ft | 278 kts | 3° |
| 2026-05-06 19:01 | 59.63874 | 18.22994 | 5396 ft | 272 kts | 2° |
| 2026-05-06 19:02 | 59.65725 | 18.23191 | 4999 ft | 268 kts | 2° |
| 2026-05-06 19:02 | 59.67573 | 18.23385 | 4597 ft | 264 kts | 2° |
| 2026-05-06 19:02 | 59.69424 | 18.23579 | 4198 ft | 263 kts | 2° |
| 2026-05-06 19:02 | 59.71227 | 18.23766 | 3807 ft | 263 kts | 2° |
| 2026-05-06 19:03 | 59.73054 | 18.23956 | 3411 ft | 263 kts | 2° |
| 2026-05-06 19:03 | 59.74879 | 18.24147 | 3013 ft | 263 kts | 2° |
| 2026-05-06 19:03 | 59.76690 | 18.24336 | 2737 ft | 258 kts | 2° |
| 2026-05-06 19:03 | 59.78461 | 18.24520 | 2550 ft | 250 kts | 2° |
| 2026-05-06 19:04 | 59.80148 | 18.24395 | 2496 ft | 236 kts | 351° |
| 2026-05-06 19:04 | 59.81717 | 18.23607 | 2490 ft | 230 kts | 338° |
| 2026-05-06 19:04 | 59.83137 | 18.22195 | 2492 ft | 227 kts | 326° |
| 2026-05-06 19:04 | 59.84366 | 18.20210 | 2507 ft | 229 kts | 313° |
| 2026-05-06 19:05 | 59.85356 | 18.17740 | 2505 ft | 228 kts | 301° |
| 2026-05-06 19:05 | 59.86049 | 18.14928 | 2494 ft | 225 kts | 288° |
| 2026-05-06 19:05 | 59.86410 | 18.11944 | 2481 ft | 217 kts | 276° |
| 2026-05-06 19:05 | 59.86421 | 18.09058 | 2480 ft | 201 kts | 262° |
| 2026-05-06 19:06 | 59.86102 | 18.06455 | 2486 ft | 190 kts | 248° |
| 2026-05-06 19:06 | 59.85447 | 18.04238 | 2495 ft | 185 kts | 221° |
| 2026-05-06 19:06 | 59.84285 | 18.03266 | 2537 ft | 186 kts | 192° |
| 2026-05-06 19:06 | 59.83004 | 18.02664 | 2509 ft | 191 kts | 193° |
| 2026-05-06 19:07 | 59.81716 | 18.02085 | 2499 ft | 189 kts | 193° |
| 2026-05-06 19:07 | 59.80854 | 18.01713 | 2492 ft | 187 kts | 192° |
| 2026-05-06 19:07 | 59.79176 | 18.01066 | 2489 ft | 184 kts | 191° |
| 2026-05-06 19:07 | 59.77920 | 18.00608 | 2491 ft | 183 kts | 191° |
| 2026-05-06 19:08 | 59.76662 | 18.00152 | 2454 ft | 187 kts | 191° |
| 2026-05-06 19:08 | 59.75355 | 17.99679 | 2231 ft | 192 kts | 191° |
| 2026-05-06 19:08 | 59.74059 | 17.99210 | 1971 ft | 186 kts | 191° |
| 2026-05-06 19:08 | 59.72800 | 17.98754 | 1734 ft | 183 kts | 191° |
| 2026-05-06 19:09 | 59.71549 | 17.98301 | 1488 ft | 180 kts | 191° |
| 2026-05-06 19:09 | 59.70359 | 17.97870 | 1258 ft | 168 kts | 191° |
| 2026-05-06 19:09 | 59.69256 | 17.97470 | 1067 ft | 153 kts | 191° |
| 2026-05-06 19:09 | 59.68268 | 17.97112 | 863 ft | 140 kts | 191° |
| 2026-05-06 19:10 | 59.67322 | 17.96769 | 674 ft | 137 kts | 191° |
| 2026-05-06 19:10 | 59.66382 | 17.96428 | 491 ft | 137 kts | 191° |
| 2026-05-06 19:10 | 59.65442 | 17.96087 | 308 ft | 137 kts | 191° |
| 2026-05-06 19:10 | 59.64508 | 17.95756 | 139 ft | 137 kts | 191° |
| 2026-05-06 19:11 | 59.63659 | 17.95448 | 117 ft | 108 kts | 190° |
| 2026-05-06 19:11 | 59.63196 | 17.95279 | 128 ft | 27 kts | 193° |
| 2026-05-06 19:11 | 59.63009 | 17.95149 | 135 ft | 24 kts | 214° |
| 2026-05-06 19:11 | 59.62885 | 17.94960 | 136 ft | 18 kts | 221° |
| 2026-05-06 19:12 | 59.62864 | 17.94923 | 136 ft | 0 kts | 224° |
| 2026-05-06 19:13 | 59.62847 | 17.94882 | 136 ft | 11 kts | 239° |
| 2026-05-06 19:13 | 59.62870 | 17.94776 | 136 ft | 14 kts | 347° |
| 2026-05-06 19:13 | 59.63029 | 17.94811 | 132 ft | 32 kts | 10° |
| 2026-05-06 19:14 | 59.63292 | 17.94905 | 123 ft | 42 kts | 10° |
| 2026-05-06 19:14 | 59.63492 | 17.94979 | 117 ft | 23 kts | 9° |
| 2026-05-06 19:14 | 59.63651 | 17.95035 | 112 ft | 23 kts | 10° |
| 2026-05-06 19:14 | 59.63805 | 17.95091 | 109 ft | 22 kts | 10° |
| 2026-05-06 19:15 | 59.63953 | 17.95144 | 108 ft | 21 kts | 10° |
| 2026-05-06 19:15 | 59.64096 | 17.95196 | 107 ft | 19 kts | 11° |
| 2026-05-06 19:15 | 59.64226 | 17.95243 | 105 ft | 19 kts | 9° |
| 2026-05-06 19:15 | 59.64351 | 17.95288 | 105 ft | 18 kts | 11° |
| 2026-05-06 19:16 | 59.64472 | 17.95332 | 104 ft | 17 kts | 9° |
| 2026-05-06 19:16 | 59.64589 | 17.95371 | 104 ft | 17 kts | 12° |
| 2026-05-06 19:16 | 59.64700 | 17.95419 | 104 ft | 16 kts | 11° |
| 2026-05-06 19:16 | 59.64808 | 17.95456 | 106 ft | 15 kts | 11° |
| 2026-05-06 19:17 | 59.64912 | 17.95494 | 108 ft | 15 kts | 9° |
| 2026-05-06 19:17 | 59.65012 | 17.95517 | 112 ft | 14 kts | 3° |
| 2026-05-06 19:17 | 59.65106 | 17.95482 | 116 ft | 14 kts | 345° |
| 2026-05-06 19:17 | 59.65197 | 17.95438 | 121 ft | 14 kts | 346° |
| 2026-05-06 19:18 | 59.65298 | 17.95386 | 125 ft | 16 kts | 345° |
| 2026-05-06 19:18 | 59.65404 | 17.95326 | 128 ft | 18 kts | 345° |
| 2026-05-06 19:18 | 59.65546 | 17.95250 | 128 ft | 24 kts | 343° |
| 2026-05-06 19:18 | 59.65695 | 17.95157 | 128 ft | 15 kts | 341° |
| 2026-05-06 19:19 | 59.65733 | 17.95128 | 127 ft | 8 kts | 333° |
| 2026-05-06 19:19 | 59.65752 | 17.95022 | 125 ft | 5 kts | 246° |
| 2026-05-06 19:19 | 59.65734 | 17.94912 | 124 ft | 12 kts | 258° |
| 2026-05-06 19:19 | 59.65710 | 17.94709 | 124 ft | 15 kts | 255° |
| 2026-05-06 19:20 | 59.65695 | 17.94586 | 124 ft | 11 kts | 256° |
| 2026-05-06 19:20 | 59.65672 | 17.94400 | 124 ft | 17 kts | 256° |
| 2026-05-06 19:20 | 59.65639 | 17.94144 | 122 ft | 23 kts | 256° |
| 2026-05-06 19:20 | 59.65596 | 17.93813 | 113 ft | 19 kts | 255° |
| 2026-05-06 19:21 | 59.65560 | 17.93518 | 111 ft | 24 kts | 257° |
| 2026-05-06 19:21 | 59.65537 | 17.93342 | 111 ft | 15 kts | 254° |
| 2026-05-06 19:21 | 59.65510 | 17.93175 | 111 ft | 11 kts | 255° |
| 2026-05-06 19:21 | 59.65488 | 17.92985 | 111 ft | 17 kts | 257° |
| 2026-05-06 19:22 | 59.65449 | 17.92764 | 110 ft | 18 kts | 247° |
| 2026-05-06 19:22 | 59.65379 | 17.92688 | 111 ft | 7 kts | 161° |
| 2026-05-06 19:22 | 59.65313 | 17.92753 | 111 ft | 14 kts | 156° |
| 2026-05-06 19:22 | 59.65268 | 17.92815 | 111 ft | 7 kts | 101° |
| 2026-05-06 19:23 | 59.65275 | 17.92882 | 111 ft | 5 kts | 70° |
| 2026-05-06 19:23 | 59.65285 | 17.92933 | 111 ft | 2 kts | 70° |
| 2026-05-06 19:23 | 59.65288 | 17.92952 | 111 ft | 1 kts | 70° |